Time;durP1;ratioP1;P1;durP2;ratioP2;P2;SDS_P1;SDS_P2;PMS_P1;PMS_P2;Temp;Humidity;BMP_temperature;BMP_pressure;BME280_temperature;BME280_humidity;BME280_pressure;Samples;Min_cycle;Max_cycle;Signal;HPM_P1;HPM_P2
2021/03/13 00:01:17;;;;;;;;;;;7.60;92.20;;;;;;4391834;32;20059;-81
2021/03/13 00:03:44;;;;;;;;;;;7.60;92.20;;;;;;4391720;32;35706;-80
2021/03/13 00:06:10;;;;;;;;;;;7.60;92.30;;;;;;4392117;32;20016;-81
2021/03/13 00:08:37;;;;;;;;;;;7.60;92.30;;;;;;4391944;32;31117;-81
2021/03/13 00:11:09;;;;;;;;;;;7.50;92.40;;;;;;4394499;32;20015;-81
2021/03/13 00:13:39;;;;;;;;;;;7.50;92.50;;;;;;4394223;32;26499;-80
2021/03/13 00:16:06;;;;;;;;;;;7.50;92.50;;;;;;4407915;32;29043;-79
2021/03/13 00:18:34;;;;;;;;;;;7.40;92.60;;;;;;4408230;32;20011;-80
2021/03/13 00:21:03;;;;;;;;;;;7.40;92.50;;;;;;4394197;32;25870;-79
2021/03/13 00:23:30;;;;;;;;;;;7.40;92.60;;;;;;4407882;32;25382;-79
2021/03/13 00:25:57;;;;;;;;;;;7.40;92.60;;;;;;4393744;32;25692;-80
2021/03/13 00:28:26;;;;;;;;;;;7.40;92.80;;;;;;4394057;32;20429;-79
2021/03/13 00:30:53;;;;;;;;;;;7.40;92.70;;;;;;4407672;32;20038;-79
2021/03/13 00:33:31;;;;;;;;;;;7.40;92.90;;;;;;4394119;32;20020;-78
2021/03/13 00:35:58;;;;;;;;;;;7.30;92.90;;;;;;4394415;32;20337;-79
2021/03/13 00:38:24;;;;;;;;;;;7.40;93.00;;;;;;4393573;32;24650;-77
2021/03/13 00:40:55;;;;;;;;;;;7.30;93.10;;;;;;4407724;32;20019;-78
2021/03/13 00:43:22;;;;;;;;;;;7.30;93.20;;;;;;4393633;32;32514;-78
2021/03/13 00:45:54;;;;;;;;;;;7.30;93.30;;;;;;4382466;32;20005;-78
2021/03/13 00:48:21;;;;;;;;;;;7.20;93.40;;;;;;4407183;32;23742;-77
2021/03/13 00:50:51;;;;;;;;;;;7.20;93.50;;;;;;4394345;32;20019;-78
2021/03/13 00:53:17;;;;;;;;;;;7.20;93.50;;;;;;4407113;32;29341;-78
2021/03/13 00:55:47;;;;;;;;;;;7.20;93.70;;;;;;4380590;32;29108;-78
2021/03/13 00:58:14;;;;;;;;;;;7.20;93.70;;;;;;4393692;32;31855;-78
2021/03/13 01:00:40;;;;;;;;;;;7.20;93.50;;;;;;4394582;32;20023;-77
2021/03/13 01:03:07;;;;;;;;;;;7.20;93.70;;;;;;4390286;32;35789;-79
2021/03/13 01:05:37;;;;;;;;;;;7.20;93.80;;;;;;4378628;32;24126;-77
2021/03/13 01:08:07;;;;;;;;;;;7.20;93.90;;;;;;4390861;32;20626;-79
2021/03/13 01:10:48;;;;;;;;;;;7.20;93.90;;;;;;4391108;32;29537;-78
2021/03/13 01:13:19;;;;;;;;;;;7.20;93.80;;;;;;4390762;32;33338;-78
2021/03/13 01:15:45;;;;;;;;;;;7.20;93.80;;;;;;4390755;32;29374;-77
2021/03/13 01:18:18;;;;;;;;;;;7.20;93.90;;;;;;4392165;32;20000;-78
2021/03/13 01:20:46;;;;;;;;;;;7.20;94.00;;;;;;4378537;32;20038;-77
2021/03/13 01:23:13;;;;;;;;;;;7.20;94.10;;;;;;4391243;32;32415;-80
2021/03/13 01:25:40;;;;;;;;;;;7.20;94.20;;;;;;4389858;32;38543;-79
2021/03/13 01:28:07;;;;;;;;;;;7.10;94.10;;;;;;4390438;32;28173;-79
2021/03/13 01:30:47;;;;;;;;;;;7.20;94.40;;;;;;4391941;32;20074;-80
2021/03/13 01:33:19;;;;;;;;;;;7.20;94.00;;;;;;4390784;32;20079;-81
2021/03/13 01:35:46;;;;;;;;;;;7.20;93.90;;;;;;4390261;32;28291;-80
2021/03/13 01:38:15;;;;;;;;;;;7.20;94.00;;;;;;4391912;32;20022;-80
2021/03/13 01:40:48;;;;;;;;;;;7.20;94.00;;;;;;4377700;32;35687;-80
2021/03/13 01:43:17;;;;;;;;;;;7.20;94.10;;;;;;4390644;32;21622;-80
2021/03/13 01:45:44;;;;;;;;;;;7.10;94.20;;;;;;4390552;32;30155;-80
2021/03/13 01:48:15;;;;;;;;;;;7.20;94.30;;;;;;4390832;32;20412;-81
2021/03/13 01:50:42;;;;;;;;;;;7.10;94.20;;;;;;4390380;32;29670;-80
2021/03/13 01:53:09;;;;;;;;;;;7.10;94.20;;;;;;4391809;32;20016;-80
2021/03/13 01:55:36;;;;;;;;;;;7.20;94.10;;;;;;4390598;32;20016;-80
2021/03/13 01:58:08;;;;;;;;;;;7.20;94.10;;;;;;4390645;32;20465;-81
2021/03/13 02:00:45;;;;;;;;;;;7.20;94.10;;;;;;4390436;32;24193;-81
2021/03/13 02:03:12;;;;;;;;;;;7.20;94.30;;;;;;4404145;32;26779;-80
2021/03/13 02:05:45;;;;;;;;;;;7.20;94.30;;;;;;4407183;32;20004;-80
2021/03/13 02:08:29;;;;;;;;;;;7.20;94.40;;;;;;4391922;32;34848;-81
2021/03/13 02:11:02;;;;;;;;;;;7.20;94.40;;;;;;4392000;32;28158;-79
2021/03/13 02:13:48;;;;;;;;;;;7.20;94.50;;;;;;4393501;32;20019;-80
2021/03/13 02:16:33;;;;;;;;;;;7.20;94.40;;;;;;4393274;32;20018;-80
2021/03/13 02:19:03;;;;;;;;;;;7.20;94.40;;;;;;4406525;32;20008;-81
2021/03/13 02:21:36;;;;;;;;;;;7.20;94.40;;;;;;4380532;32;20027;-81
2021/03/13 02:24:06;;;;;;;;;;;7.20;94.60;;;;;;4380358;32;20027;-80
2021/03/13 02:26:36;;;;;;;;;;;7.20;94.50;;;;;;4393491;32;20030;-80
2021/03/13 02:29:10;;;;;;;;;;;7.20;94.60;;;;;;4393128;32;20016;-80
2021/03/13 02:31:52;;;;;;;;;;;7.20;94.60;;;;;;4392685;32;20008;-80
2021/03/13 02:34:24;;;;;;;;;;;7.20;94.70;;;;;;4393395;32;20026;-80
2021/03/13 02:36:58;;;;;;;;;;;7.20;94.70;;;;;;4392728;32;20062;-79
2021/03/13 02:39:27;;;;;;;;;;;7.20;94.70;;;;;;4393144;32;20003;-81
2021/03/13 02:42:02;;;;;;;;;;;7.30;94.60;;;;;;4392496;32;20063;-80
2021/03/13 02:44:35;;;;;;;;;;;7.30;94.70;;;;;;4406963;32;20059;-81
2021/03/13 02:47:03;;;;;;;;;;;7.30;94.60;;;;;;4406768;32;20046;-80
2021/03/13 02:49:34;;;;;;;;;;;7.30;94.70;;;;;;4392397;32;20392;-80
2021/03/13 02:52:05;;;;;;;;;;;7.30;94.70;;;;;;4406513;32;20016;-80
2021/03/13 02:54:43;;;;;;;;;;;7.30;94.70;;;;;;4380510;32;20004;-80
2021/03/13 02:57:13;;;;;;;;;;;7.40;94.80;;;;;;4380071;32;20010;-81
2021/03/13 02:59:40;;;;;;;;;;;7.30;94.70;;;;;;4392669;32;20023;-82
2021/03/13 03:02:15;;;;;;;;;;;7.40;94.80;;;;;;4392954;32;20063;-80
2021/03/13 03:04:42;;;;;;;;;;;7.40;94.90;;;;;;4406350;32;20047;-81
2021/03/13 03:07:15;;;;;;;;;;;7.40;94.80;;;;;;4406243;32;20039;-80
2021/03/13 03:09:45;;;;;;;;;;;7.40;95.10;;;;;;4406757;32;20008;-81
2021/03/13 03:12:13;;;;;;;;;;;7.40;94.70;;;;;;4379721;32;20018;-80
2021/03/13 03:14:40;;;;;;;;;;;7.40;94.80;;;;;;4380220;32;20020;-79
2021/03/13 03:17:10;;;;;;;;;;;7.40;94.90;;;;;;4392567;32;20118;-80
2021/03/13 03:19:44;;;;;;;;;;;7.50;95.00;;;;;;4392881;32;20408;-79
2021/03/13 03:22:13;;;;;;;;;;;7.50;94.90;;;;;;4406624;32;20063;-80
2021/03/13 03:24:41;;;;;;;;;;;7.50;94.90;;;;;;4406602;32;20015;-80
2021/03/13 03:27:14;;;;;;;;;;;7.50;94.90;;;;;;4392763;32;20058;-81
2021/03/13 03:29:46;;;;;;;;;;;7.50;95.00;;;;;;4380153;32;20048;-80
2021/03/13 03:32:29;;;;;;;;;;;7.50;95.00;;;;;;4394040;32;20055;-81
2021/03/13 03:35:02;;;;;;;;;;;7.50;95.00;;;;;;4380531;32;20043;-80
2021/03/13 03:37:35;;;;;;;;;;;7.50;95.00;;;;;;4392740;32;20055;-81
2021/03/13 03:40:05;;;;;;;;;;;7.50;95.00;;;;;;4392670;32;20030;-81
2021/03/13 03:42:40;;;;;;;;;;;7.50;95.00;;;;;;4406378;32;20000;-81
2021/03/13 03:45:17;;;;;;;;;;;7.50;95.00;;;;;;4395739;32;20348;-80
2021/03/13 03:47:46;;;;;;;;;;;7.50;95.10;;;;;;4409088;32;20016;-80
2021/03/13 03:50:19;;;;;;;;;;;7.50;95.10;;;;;;4382697;32;20009;-81
2021/03/13 03:52:50;;;;;;;;;;;7.50;95.20;;;;;;4409143;32;20051;-81
2021/03/13 03:55:24;;;;;;;;;;;7.50;95.10;;;;;;4409291;32;20067;-80
2021/03/13 03:57:54;;;;;;;;;;;7.50;95.10;;;;;;4395225;32;20419;-81
2021/03/13 04:00:30;;;;;;;;;;;7.50;95.10;;;;;;4383186;32;19996;-81
2021/03/13 04:03:01;;;;;;;;;;;7.60;95.20;;;;;;4382134;32;20067;-80
2021/03/13 04:05:31;;;;;;;;;;;7.50;95.20;;;;;;4395026;32;20427;-80
2021/03/13 04:08:04;;;;;;;;;;;7.50;95.30;;;;;;4394718;32;20413;-80
2021/03/13 04:10:37;;;;;;;;;;;7.50;95.30;;;;;;4395177;32;20016;-79
2021/03/13 04:13:10;;;;;;;;;;;7.50;95.40;;;;;;4395122;32;20000;-79
2021/03/13 04:15:41;;;;;;;;;;;7.50;95.40;;;;;;4382587;32;20115;-79
2021/03/13 04:18:08;;;;;;;;;;;7.60;95.40;;;;;;4395328;32;20079;-80
2021/03/13 04:20:35;;;;;;;;;;;7.60;95.50;;;;;;4408751;32;20059;-81
2021/03/13 04:23:12;;;;;;;;;;;7.60;95.50;;;;;;4382209;32;20393;-80
2021/03/13 04:25:41;;;;;;;;;;;7.60;95.40;;;;;;4408794;32;20027;-80
2021/03/13 04:28:13;;;;;;;;;;;7.60;95.50;;;;;;4408354;32;20110;-81
2021/03/13 04:30:42;;;;;;;;;;;7.60;95.40;;;;;;4394964;32;20015;-81
2021/03/13 04:33:20;;;;;;;;;;;7.60;95.40;;;;;;4382812;32;20012;-81
2021/03/13 04:35:51;;;;;;;;;;;7.60;95.30;;;;;;4395078;32;20027;-81
2021/03/13 04:38:24;;;;;;;;;;;7.70;95.30;;;;;;4408595;32;20059;-80
2021/03/13 04:40:54;;;;;;;;;;;7.60;95.30;;;;;;4394806;32;20034;-80
2021/03/13 04:43:25;;;;;;;;;;;7.70;95.20;;;;;;4408441;32;20012;-81
2021/03/13 04:45:59;;;;;;;;;;;7.70;95.10;;;;;;4408438;32;20024;-81
2021/03/13 04:48:27;;;;;;;;;;;7.70;95.20;;;;;;4394634;32;20039;-81
2021/03/13 04:51:04;;;;;;;;;;;7.80;95.20;;;;;;4394336;32;20051;-81
2021/03/13 04:53:30;;;;;;;;;;;7.70;95.20;;;;;;4394391;32;20100;-80
2021/03/13 04:56:03;;;;;;;;;;;7.70;95.20;;;;;;4407434;32;20196;-80
2021/03/13 04:58:34;;;;;;;;;;;7.80;95.20;;;;;;4394610;32;20079;-81
2021/03/13 05:01:10;;;;;;;;;;;7.80;95.20;;;;;;4381752;32;20026;-80
2021/03/13 05:03:40;;;;;;;;;;;7.80;95.20;;;;;;4382061;32;20019;-79
2021/03/13 05:06:10;;;;;;;;;;;7.80;95.30;;;;;;4407627;32;20165;-80
2021/03/13 05:08:39;;;;;;;;;;;7.80;95.20;;;;;;4394270;32;20388;-81
2021/03/13 05:11:12;;;;;;;;;;;7.80;95.20;;;;;;4394547;32;20039;-80
2021/03/13 05:13:39;;;;;;;;;;;7.80;95.20;;;;;;4381250;32;20409;-80
2021/03/13 05:16:06;;;;;;;;;;;7.80;95.20;;;;;;4393830;32;20000;-80
2021/03/13 05:18:36;;;;;;;;;;;7.80;95.20;;;;;;4394259;32;20382;-80
2021/03/13 05:21:11;;;;;;;;;;;7.80;95.20;;;;;;4394964;32;20067;-81
2021/03/13 05:23:41;;;;;;;;;;;7.80;95.30;;;;;;4394325;32;20106;-80
2021/03/13 05:26:11;;;;;;;;;;;7.80;95.30;;;;;;4393698;32;20129;-80
2021/03/13 05:28:43;;;;;;;;;;;7.80;95.30;;;;;;4381774;32;20355;-80
2021/03/13 05:31:18;;;;;;;;;;;7.80;95.40;;;;;;4394639;32;20037;-80
2021/03/13 05:33:59;;;;;;;;;;;7.80;95.30;;;;;;4382621;32;20047;-79
2021/03/13 05:36:31;;;;;;;;;;;7.80;95.30;;;;;;4407096;32;20048;-80
2021/03/13 05:39:03;;;;;;;;;;;7.70;95.40;;;;;;4381357;32;20106;-80
2021/03/13 05:41:33;;;;;;;;;;;7.70;95.40;;;;;;4407539;32;20440;-80
2021/03/13 05:44:00;;;;;;;;;;;7.70;95.30;;;;;;4393356;32;20042;-81
2021/03/13 05:46:35;;;;;;;;;;;7.70;95.40;;;;;;4394105;32;20200;-79
2021/03/13 05:49:08;;;;;;;;;;;7.80;95.50;;;;;;4393564;32;20333;-81
2021/03/13 05:51:42;;;;;;;;;;;7.70;95.40;;;;;;4393584;32;20130;-80
2021/03/13 05:54:11;;;;;;;;;;;7.70;95.40;;;;;;4393561;32;20057;-80
2021/03/13 05:56:45;;;;;;;;;;;7.70;95.40;;;;;;4407548;32;20062;-80
2021/03/13 05:59:17;;;;;;;;;;;7.80;95.40;;;;;;4407491;32;20056;-81
2021/03/13 06:01:48;;;;;;;;;;;7.80;95.50;;;;;;4390728;32;20011;-80
2021/03/13 06:04:24;;;;;;;;;;;7.80;95.50;;;;;;4391985;32;20015;-78
2021/03/13 06:06:54;;;;;;;;;;;7.70;95.40;;;;;;4390215;32;20027;-81
2021/03/13 06:09:23;;;;;;;;;;;7.70;95.50;;;;;;4390052;32;22896;-81
2021/03/13 06:11:52;;;;;;;;;;;7.80;95.50;;;;;;4391987;32;20022;-80
2021/03/13 06:14:22;;;;;;;;;;;7.80;95.50;;;;;;4390340;32;35806;-80
2021/03/13 06:16:56;;;;;;;;;;;7.70;95.50;;;;;;4390540;32;20000;-81
2021/03/13 06:19:23;;;;;;;;;;;7.70;95.50;;;;;;4390171;32;20008;-80
2021/03/13 06:21:53;;;;;;;;;;;7.80;95.50;;;;;;4389394;32;28165;-80
2021/03/13 06:24:24;;;;;;;;;;;7.80;95.60;;;;;;4389529;32;37246;-79
2021/03/13 06:26:57;;;;;;;;;;;7.70;95.60;;;;;;4390620;32;20060;-80
2021/03/13 06:29:33;;;;;;;;;;;7.80;95.70;;;;;;4378192;32;20438;-80
2021/03/13 06:32:06;;;;;;;;;;;7.80;95.60;;;;;;4390938;32;31668;-80
2021/03/13 06:34:52;;;;;;;;;;;7.70;95.80;;;;;;4389403;32;33462;-79
2021/03/13 06:37:25;;;;;;;;;;;7.70;95.90;;;;;;4389491;32;29855;-80
2021/03/13 06:39:52;;;;;;;;;;;7.70;95.90;;;;;;4378067;32;19996;-80
2021/03/13 06:42:20;;;;;;;;;;;7.80;95.90;;;;;;4390582;32;20008;-80
2021/03/13 06:44:57;;;;;;;;;;;7.80;95.90;;;;;;4390343;32;20060;-79
2021/03/13 06:47:32;;;;;;;;;;;7.70;95.80;;;;;;4377808;32;20395;-80
2021/03/13 06:50:09;;;;;;;;;;;7.80;95.90;;;;;;4391298;32;20012;-79
2021/03/13 06:52:36;;;;;;;;;;;7.80;95.70;;;;;;4391166;32;20063;-80
2021/03/13 06:55:03;;;;;;;;;;;7.60;95.40;;;;;;4391522;32;20008;-80
2021/03/13 06:57:32;;;;;;;;;;;7.50;95.30;;;;;;4377717;32;20056;-80
2021/03/13 07:00:03;;;;;;;;;;;7.30;95.20;;;;;;4377319;32;20374;-81
2021/03/13 07:02:29;;;;;;;;;;;7.30;95.20;;;;;;4389986;32;20016;-80
2021/03/13 07:05:11;;;;;;;;;;;7.20;95.10;;;;;;4390506;32;20134;-81
2021/03/13 07:07:41;;;;;;;;;;;7.10;95.20;;;;;;4391236;32;20076;-81
2021/03/13 07:10:10;;;;;;;;;;;7.00;95.20;;;;;;4390292;32;20043;-81
2021/03/13 07:12:44;;;;;;;;;;;7.00;95.50;;;;;;4390027;32;20045;-82
2021/03/13 07:15:12;;;;;;;;;;;7.00;95.10;;;;;;4391393;32;20038;-81
2021/03/13 07:17:44;;;;;;;;;;;6.90;95.00;;;;;;4391810;32;20076;-83
2021/03/13 07:20:11;;;;;;;;;;;6.90;95.10;;;;;;4394687;32;20071;-82
2021/03/13 07:22:48;;;;;;;;;;;6.90;95.10;;;;;;4393283;32;20035;-82
2021/03/13 07:25:19;;;;;;;;;;;6.80;94.90;;;;;;4393315;32;20035;-82
2021/03/13 07:27:46;;;;;;;;;;;6.90;95.00;;;;;;4393305;32;20064;-82
2021/03/13 07:30:15;;;;;;;;;;;6.90;95.00;;;;;;4394249;32;20045;-81
2021/03/13 07:32:48;;;;;;;;;;;6.90;94.80;;;;;;4380487;32;19996;-81
2021/03/13 07:35:38;;;;;;;;;;;6.90;94.90;;;;;;4394000;32;20004;-82
2021/03/13 07:38:10;;;;;;;;;;;6.90;94.90;;;;;;4394009;32;20024;-81
2021/03/13 07:40:45;;;;;;;;;;;6.90;94.90;;;;;;4392491;32;20000;-82
2021/03/13 07:43:15;;;;;;;;;;;7.00;94.80;;;;;;4392944;32;20011;-82
2021/03/13 07:45:42;;;;;;;;;;;7.00;94.70;;;;;;4392654;32;20072;-83
2021/03/13 07:48:09;;;;;;;;;;;7.00;94.70;;;;;;4392876;32;20016;-82
2021/03/13 07:50:39;;;;;;;;;;;7.00;94.50;;;;;;4379911;32;20015;-82
2021/03/13 07:53:07;;;;;;;;;;;7.00;94.40;;;;;;4392643;32;20026;-83
2021/03/13 07:55:39;;;;;;;;;;;7.10;94.40;;;;;;4392547;32;27714;-83
2021/03/13 07:58:07;;;;;;;;;;;7.10;94.20;;;;;;4392949;32;28166;-83
2021/03/13 08:00:44;;;;;;;;;;;7.10;94.60;;;;;;4393561;32;20360;-84
2021/03/13 08:03:37;;;;;;;;;;;7.10;94.10;;;;;;4392025;32;20020;-82
2021/03/13 08:06:04;;;;;;;;;;;7.20;94.20;;;;;;4392850;32;20012;-83
2021/03/13 08:08:39;;;;;;;;;;;7.20;94.00;;;;;;4392956;32;20073;-84
2021/03/13 08:11:07;;;;;;;;;;;7.20;93.80;;;;;;4390943;32;36229;-84
2021/03/13 08:13:37;;;;;;;;;;;7.20;93.90;;;;;;4392742;32;20046;-83
2021/03/13 08:16:04;;;;;;;;;;;7.30;93.70;;;;;;4391970;32;20004;-82
2021/03/13 08:18:44;;;;;;;;;;;7.20;93.70;;;;;;4392495;32;21159;-82
2021/03/13 08:21:17;;;;;;;;;;;7.30;93.70;;;;;;4391591;32;26835;-81
2021/03/13 08:23:49;;;;;;;;;;;7.30;93.70;;;;;;4379920;32;20000;-81
2021/03/13 08:26:17;;;;;;;;;;;7.30;93.70;;;;;;4393820;32;20045;-82
2021/03/13 08:28:50;;;;;;;;;;;7.30;93.40;;;;;;4378926;32;20036;-82
2021/03/13 08:31:32;;;;;;;;;;;7.30;93.30;;;;;;4392329;32;20043;-81
2021/03/13 08:34:03;;;;;;;;;;;7.30;93.20;;;;;;4392875;32;23888;-81
2021/03/13 08:36:34;;;;;;;;;;;7.30;93.50;;;;;;4392116;32;20016;-81
2021/03/13 08:39:10;;;;;;;;;;;7.30;93.20;;;;;;4391924;32;20407;-81
2021/03/13 08:41:40;;;;;;;;;;;7.30;93.20;;;;;;4393340;32;20008;-81
2021/03/13 08:44:07;;;;;;;;;;;7.30;93.20;;;;;;4393213;32;20052;-81
2021/03/13 08:46:46;;;;;;;;;;;7.30;93.00;;;;;;4380277;32;19996;-82
2021/03/13 08:49:35;;;;;;;;;;;7.30;92.80;;;;;;4391989;32;20075;-81
2021/03/13 08:52:05;;;;;;;;;;;7.30;92.90;;;;;;4391991;32;36624;-81
2021/03/13 08:54:39;;;;;;;;;;;7.30;92.50;;;;;;4392486;32;23129;-81
2021/03/13 08:57:10;;;;;;;;;;;7.20;92.60;;;;;;4391810;32;20022;-81
2021/03/13 08:59:40;;;;;;;;;;;7.20;92.40;;;;;;4391947;32;20166;-81
2021/03/13 09:02:18;;;;;;;;;;;7.20;92.80;;;;;;4398791;32;20037;-81
2021/03/13 09:04:46;;;;;;;;;;;7.20;92.50;;;;;;4407773;32;20020;-81
2021/03/13 09:07:16;;;;;;;;;;;7.20;92.40;;;;;;4407591;32;20360;-81
2021/03/13 09:09:42;;;;;;;;;;;7.20;92.50;;;;;;4407844;32;20021;-81
2021/03/13 09:12:13;;;;;;;;;;;7.20;92.50;;;;;;4393959;32;20061;-81
2021/03/13 09:14:41;;;;;;;;;;;7.20;92.50;;;;;;4407898;32;20020;-81
2021/03/13 09:17:13;;;;;;;;;;;7.20;92.60;;;;;;4407447;32;20456;-82
2021/03/13 09:19:47;;;;;;;;;;;7.30;92.50;;;;;;4394449;32;20047;-81
2021/03/13 09:22:23;;;;;;;;;;;7.30;92.30;;;;;;4394229;32;20361;-80
2021/03/13 09:24:52;;;;;;;;;;;7.30;92.20;;;;;;4394168;32;20413;-80
2021/03/13 09:27:26;;;;;;;;;;;7.30;91.90;;;;;;4394174;32;20008;-81
2021/03/13 09:29:56;;;;;;;;;;;7.30;92.10;;;;;;4394231;32;20008;-81
2021/03/13 09:32:28;;;;;;;;;;;7.30;92.10;;;;;;4407649;32;20014;-81
2021/03/13 09:34:58;;;;;;;;;;;7.30;91.90;;;;;;4407110;32;20956;-81
2021/03/13 09:37:29;;;;;;;;;;;7.30;91.90;;;;;;4392835;32;23828;-81
2021/03/13 09:40:06;;;;;;;;;;;7.40;92.00;;;;;;4406898;32;23688;-81
2021/03/13 09:42:34;;;;;;;;;;;7.50;92.00;;;;;;4407489;32;20004;-82
2021/03/13 09:45:03;;;;;;;;;;;7.50;91.80;;;;;;4407500;32;20075;-82
2021/03/13 09:47:43;;;;;;;;;;;7.50;91.60;;;;;;4406994;32;20019;-81
2021/03/13 09:50:13;;;;;;;;;;;7.60;91.20;;;;;;4393182;32;20018;-81
2021/03/13 09:52:43;;;;;;;;;;;7.60;91.40;;;;;;4407600;32;20461;-81
2021/03/13 09:55:13;;;;;;;;;;;7.60;91.20;;;;;;4406858;32;20015;-81
2021/03/13 09:57:44;;;;;;;;;;;7.60;91.20;;;;;;4393174;32;20056;-81
2021/03/13 10:00:21;;;;;;;;;;;7.60;91.10;;;;;;4378801;32;20020;-80
2021/03/13 10:02:56;;;;;;;;;;;7.60;91.10;;;;;;4394080;32;20099;-81
2021/03/13 10:05:37;;;;;;;;;;;7.60;91.20;;;;;;4382201;32;20004;-81
2021/03/13 10:08:04;;;;;;;;;;;7.60;91.50;;;;;;4392708;32;28840;-81
2021/03/13 10:13:37;;;;;;;;;;;7.50;91.70;;;;;;4406202;32;20045;-81
2021/03/13 10:16:11;;;;;;;;;;;7.50;91.90;;;;;;4406130;32;21372;-81
2021/03/13 10:18:39;;;;;;;;;;;7.60;91.80;;;;;;4379961;32;28138;-81
2021/03/13 10:21:09;;;;;;;;;;;7.60;91.60;;;;;;4379707;32;27522;-81
2021/03/13 10:23:37;;;;;;;;;;;7.60;91.60;;;;;;4393207;32;20058;-81
2021/03/13 10:26:06;;;;;;;;;;;7.70;91.60;;;;;;4405649;32;30263;-81
2021/03/13 10:28:36;;;;;;;;;;;7.70;91.60;;;;;;4406812;32;20004;-80
2021/03/13 10:31:08;;;;;;;;;;;7.70;91.30;;;;;;4392863;32;20375;-81
2021/03/13 10:33:38;;;;;;;;;;;7.80;91.10;;;;;;4406649;32;20075;-80
2021/03/13 10:36:07;;;;;;;;;;;7.80;90.90;;;;;;4392693;32;20045;-81
2021/03/13 10:38:42;;;;;;;;;;;7.80;90.90;;;;;;4391781;32;31740;-81
2021/03/13 10:41:12;;;;;;;;;;;7.90;91.10;;;;;;4380549;32;20097;-81
2021/03/13 10:43:39;;;;;;;;;;;8.00;91.20;;;;;;4406168;32;20063;-81
2021/03/13 10:46:10;;;;;;;;;;;8.00;90.70;;;;;;4380357;32;20041;-81
2021/03/13 10:48:43;;;;;;;;;;;8.10;90.50;;;;;;4405732;32;25779;-81
2021/03/13 10:51:19;;;;;;;;;;;8.00;90.10;;;;;;4406644;32;20056;-81
2021/03/13 10:53:48;;;;;;;;;;;8.00;90.60;;;;;;4406154;32;20004;-81
2021/03/13 10:56:18;;;;;;;;;;;8.10;90.50;;;;;;4406500;32;20017;-81
2021/03/13 10:58:58;;;;;;;;;;;8.10;90.40;;;;;;4392479;32;20007;-81
2021/03/13 11:01:25;;;;;;;;;;;8.00;90.40;;;;;;4406292;32;20404;-81
2021/03/13 11:03:55;;;;;;;;;;;7.90;90.30;;;;;;4392722;32;20016;-81
2021/03/13 11:06:33;;;;;;;;;;;8.00;90.30;;;;;;4406013;32;20056;-80
2021/03/13 11:09:06;;;;;;;;;;;8.00;90.20;;;;;;4404996;32;33604;-81
2021/03/13 11:11:37;;;;;;;;;;;8.00;90.30;;;;;;4392057;32;31289;-81
2021/03/13 11:14:09;;;;;;;;;;;8.00;90.80;;;;;;4405742;32;24599;-82
2021/03/13 11:16:49;;;;;;;;;;;8.00;90.60;;;;;;4393788;32;27148;-81
2021/03/13 11:19:16;;;;;;;;;;;8.10;90.30;;;;;;4379362;32;24893;-81
2021/03/13 11:21:42;;;;;;;;;;;8.10;90.50;;;;;;4405822;32;20041;-81
2021/03/13 11:24:10;;;;;;;;;;;8.10;90.20;;;;;;4378859;32;31400;-81
2021/03/13 11:26:36;;;;;;;;;;;8.20;90.60;;;;;;4378897;32;29094;-81
2021/03/13 11:29:05;;;;;;;;;;;8.30;90.80;;;;;;4391429;32;29405;-80
2021/03/13 11:31:32;;;;;;;;;;;8.40;90.70;;;;;;4379168;32;20057;-81
2021/03/13 11:33:59;;;;;;;;;;;8.50;90.40;;;;;;4406057;32;20067;-80
2021/03/13 11:36:26;;;;;;;;;;;8.60;90.10;;;;;;4391623;32;34197;-82
2021/03/13 11:38:55;;;;;;;;;;;8.70;90.20;;;;;;4405383;32;30823;-81
2021/03/13 11:41:22;;;;;;;;;;;8.80;88.80;;;;;;4378578;32;35030;-81
2021/03/13 11:43:51;;;;;;;;;;;8.80;88.90;;;;;;4405816;32;22794;-81
2021/03/13 11:46:18;;;;;;;;;;;8.90;88.10;;;;;;4391485;32;33203;-81
2021/03/13 11:48:47;;;;;;;;;;;8.90;88.00;;;;;;4391508;32;34895;-80
2021/03/13 11:51:14;;;;;;;;;;;8.90;88.20;;;;;;4404771;32;33642;-81
2021/03/13 11:53:41;;;;;;;;;;;9.00;89.20;;;;;;4379058;32;21133;-81
2021/03/13 11:56:09;;;;;;;;;;;9.10;88.80;;;;;;4406395;32;20052;-81
2021/03/13 11:58:36;;;;;;;;;;;9.10;87.90;;;;;;4405236;32;20015;-81
2021/03/13 12:01:19;;;;;;;;;;;9.10;87.90;;;;;;4404947;32;33006;-81
2021/03/13 12:03:46;;;;;;;;;;;9.20;86.80;;;;;;4405693;32;20411;-80
2021/03/13 12:06:13;;;;;;;;;;;9.20;86.60;;;;;;4407587;32;23183;-81
2021/03/13 12:08:55;;;;;;;;;;;9.20;87.70;;;;;;4408562;32;19999;-80
2021/03/13 12:11:27;;;;;;;;;;;9.20;88.80;;;;;;4408734;32;20045;-80
2021/03/13 12:13:57;;;;;;;;;;;9.20;88.40;;;;;;4394375;32;29814;-81
2021/03/13 12:16:25;;;;;;;;;;;9.20;86.80;;;;;;4407498;32;28565;-81
2021/03/13 12:18:52;;;;;;;;;;;9.10;87.60;;;;;;4381005;32;38057;-81
2021/03/13 12:21:22;;;;;;;;;;;9.00;89.60;;;;;;4407895;32;30848;-80
2021/03/13 12:23:48;;;;;;;;;;;8.90;90.00;;;;;;4407893;32;20326;-81
2021/03/13 12:26:22;;;;;;;;;;;8.80;90.40;;;;;;4408194;32;20345;-80
2021/03/13 12:28:49;;;;;;;;;;;8.80;90.40;;;;;;4408141;32;21060;-81
2021/03/13 12:31:18;;;;;;;;;;;8.80;90.40;;;;;;4394772;32;20029;-80
2021/03/13 12:33:45;;;;;;;;;;;8.80;90.20;;;;;;4381198;32;27477;-81
2021/03/13 12:36:17;;;;;;;;;;;8.80;90.10;;;;;;4407500;32;20144;-81
2021/03/13 12:38:48;;;;;;;;;;;8.70;89.70;;;;;;4394737;32;21869;-80
2021/03/13 12:41:17;;;;;;;;;;;8.60;90.00;;;;;;4407971;32;20004;-81
2021/03/13 12:43:44;;;;;;;;;;;8.50;89.80;;;;;;4394051;32;21413;-80
2021/03/13 12:46:16;;;;;;;;;;;8.50;90.10;;;;;;4408406;32;20397;-80
2021/03/13 12:48:47;;;;;;;;;;;8.50;90.20;;;;;;4394305;32;22799;-81
2021/03/13 12:51:14;;;;;;;;;;;8.50;90.30;;;;;;4393704;32;20761;-80
2021/03/13 12:53:48;;;;;;;;;;;8.50;90.30;;;;;;4407935;32;20015;-80
2021/03/13 12:56:17;;;;;;;;;;;8.40;90.30;;;;;;4407646;32;20879;-81
2021/03/13 12:58:44;;;;;;;;;;;8.40;90.20;;;;;;4393441;32;32620;-80
2021/03/13 13:01:10;;;;;;;;;;;8.30;90.30;;;;;;4393521;32;23159;-80
2021/03/13 13:03:37;;;;;;;;;;;8.10;89.10;;;;;;4393324;32;28130;-80
2021/03/13 13:06:07;;;;;;;;;;;8.10;89.50;;;;;;4382076;32;19996;-81
2021/03/13 13:08:34;;;;;;;;;;;8.10;90.00;;;;;;4394028;32;23168;-80
2021/03/13 13:11:03;;;;;;;;;;;8.10;90.30;;;;;;4380428;32;30936;-81
2021/03/13 13:13:30;;;;;;;;;;;8.30;90.20;;;;;;4393296;32;25353;-80
2021/03/13 13:15:58;;;;;;;;;;;8.30;90.30;;;;;;4392861;32;25325;-80
2021/03/13 13:18:25;;;;;;;;;;;8.40;90.40;;;;;;4406576;32;31241;-80
2021/03/13 13:20:55;;;;;;;;;;;8.50;90.40;;;;;;4393193;32;32569;-80
2021/03/13 13:23:25;;;;;;;;;;;8.60;90.30;;;;;;4393444;32;23041;-79
2021/03/13 13:25:54;;;;;;;;;;;8.70;90.00;;;;;;4380387;32;32051;-79
2021/03/13 13:28:21;;;;;;;;;;;8.80;89.60;;;;;;4393583;32;24551;-79
2021/03/13 13:30:47;;;;;;;;;;;8.90;89.90;;;;;;4393465;32;20373;-79
2021/03/13 13:33:14;;;;;;;;;;;8.90;88.80;;;;;;4406649;32;34650;-78
2021/03/13 13:35:41;;;;;;;;;;;9.00;89.00;;;;;;4381019;32;19997;-79
2021/03/13 13:38:11;;;;;;;;;;;9.10;87.30;;;;;;4381204;32;20000;-79
2021/03/13 13:40:37;;;;;;;;;;;9.20;87.80;;;;;;4380869;32;20000;-79
2021/03/13 13:43:07;;;;;;;;;;;9.30;87.00;;;;;;4393832;32;20016;-78
2021/03/13 13:45:39;;;;;;;;;;;9.40;85.60;;;;;;4393167;32;21157;-78
2021/03/13 13:48:06;;;;;;;;;;;9.40;85.70;;;;;;4393053;32;32301;-79
2021/03/13 13:50:35;;;;;;;;;;;9.50;85.40;;;;;;4381007;32;20055;-78
2021/03/13 13:53:11;;;;;;;;;;;9.60;85.90;;;;;;4393700;32;20059;-78
2021/03/13 13:55:48;;;;;;;;;;;9.60;83.10;;;;;;4381312;32;20000;-79
2021/03/13 13:58:20;;;;;;;;;;;9.70;82.60;;;;;;4393269;32;20006;-78
2021/03/13 14:00:53;;;;;;;;;;;9.70;82.80;;;;;;4393667;32;20018;-79
2021/03/13 14:03:31;;;;;;;;;;;9.80;83.80;;;;;;4392494;32;20649;-79
2021/03/13 14:06:04;;;;;;;;;;;9.80;84.40;;;;;;4393460;32;20016;-77
2021/03/13 14:08:38;;;;;;;;;;;9.90;82.40;;;;;;4406220;32;36401;-77
2021/03/13 14:11:10;;;;;;;;;;;9.90;81.30;;;;;;4392751;32;27690;-78
2021/03/13 14:13:45;;;;;;;;;;;9.90;82.00;;;;;;4379738;32;34009;-79
2021/03/13 14:16:17;;;;;;;;;;;9.90;81.60;;;;;;4380388;32;20006;-78
2021/03/13 14:18:52;;;;;;;;;;;9.90;81.90;;;;;;4406779;32;20045;-78
2021/03/13 14:21:24;;;;;;;;;;;9.90;81.90;;;;;;4380171;32;26262;-79
2021/03/13 14:23:51;;;;;;;;;;;9.90;81.40;;;;;;4393420;32;20503;-78
2021/03/13 14:26:21;;;;;;;;;;;9.90;82.60;;;;;;4392531;32;24471;-78
2021/03/13 14:28:53;;;;;;;;;;;9.80;81.90;;;;;;4379126;32;35240;-78
2021/03/13 14:31:19;;;;;;;;;;;9.80;83.20;;;;;;4393093;32;20014;-81
2021/03/13 14:34:02;;;;;;;;;;;9.80;82.30;;;;;;4392449;32;24366;-80
2021/03/13 14:36:31;;;;;;;;;;;9.70;82.20;;;;;;4391876;32;32291;-80
2021/03/13 14:38:58;;;;;;;;;;;9.70;82.50;;;;;;4405950;32;36208;-80
2021/03/13 14:41:25;;;;;;;;;;;9.70;82.10;;;;;;4379453;32;33925;-79
2021/03/13 14:43:54;;;;;;;;;;;9.70;82.50;;;;;;4379466;32;30423;-79
2021/03/13 14:46:23;;;;;;;;;;;9.60;82.10;;;;;;4406572;32;20126;-80
2021/03/13 14:48:50;;;;;;;;;;;9.70;83.30;;;;;;4406243;32;20037;-80
2021/03/13 14:51:28;;;;;;;;;;;9.70;83.00;;;;;;4392654;32;26167;-79
2021/03/13 14:53:55;;;;;;;;;;;9.70;81.40;;;;;;4391979;32;27089;-81
2021/03/13 14:56:27;;;;;;;;;;;9.70;81.10;;;;;;4380471;32;20004;-81